Time;durP1;ratioP1;P1;durP2;ratioP2;P2;SDS_P1;SDS_P2;PMS_P1;PMS_P2;Temp;Humidity;BMP_temperature;BMP_pressure;BME280_temperature;BME280_humidity;BME280_pressure;Samples;Min_cycle;Max_cycle;Signal;HPM_P1;HPM_P2
2022/10/13 00:00:20;;;;;;;8.80;3.13;;;10.70;99.90;;;;;;5030627;28;20268;-76
2022/10/13 00:02:45;;;;;;;13.70;4.28;;;10.70;99.90;;;;;;5035737;28;20020;-76
2022/10/13 00:05:11;;;;;;;7.97;3.42;;;10.70;99.90;;;;;;5051319;28;20025;-76
2022/10/13 00:07:36;;;;;;;11.63;3.80;;;10.70;99.90;;;;;;5052674;28;20103;-76
2022/10/13 00:10:03;;;;;;;7.07;3.55;;;10.70;99.90;;;;;;5034894;28;20124;-76
2022/10/13 00:12:28;;;;;;;6.72;3.22;;;10.70;99.90;;;;;;5050874;28;20021;-75
2022/10/13 00:14:54;;;;;;;9.88;3.97;;;10.60;99.90;;;;;;5051194;28;20439;-75
2022/10/13 00:17:19;;;;;;;10.70;4.03;;;10.70;99.90;;;;;;5052985;28;20021;-76
2022/10/13 00:19:45;;;;;;;10.75;4.20;;;10.70;99.90;;;;;;5048041;28;20089;-75
2022/10/13 00:22:11;;;;;;;9.90;3.42;;;10.70;99.90;;;;;;5051062;28;20033;-76
2022/10/13 00:24:37;;;;;;;7.22;3.33;;;10.70;99.90;;;;;;5052072;28;20021;-76
2022/10/13 00:27:02;;;;;;;9.52;3.40;;;10.70;99.90;;;;;;5051586;28;20056;-75
2022/10/13 00:29:28;;;;;;;9.02;3.78;;;10.60;99.90;;;;;;5052008;28;20527;-76
2022/10/13 00:31:54;;;;;;;9.55;4.15;;;10.60;99.90;;;;;;5052654;28;20151;-76
2022/10/13 00:34:19;;;;;;;10.80;3.90;;;10.60;99.90;;;;;;5052858;28;20111;-75
2022/10/13 00:36:45;;;;;;;12.38;4.03;;;10.60;99.90;;;;;;5049840;28;20033;-75
2022/10/13 00:39:11;;;;;;;10.90;3.75;;;10.60;99.90;;;;;;5052272;28;20386;-76
2022/10/13 00:41:36;;;;;;;12.88;3.65;;;10.60;99.90;;;;;;5054053;28;20029;-76
2022/10/13 00:44:05;;;;;;;9.40;3.78;;;10.60;99.90;;;;;;5049804;28;20108;-75
2022/10/13 00:46:35;;;;;;;11.48;3.92;;;10.60;99.90;;;;;;5050956;28;20393;-76
2022/10/13 00:49:08;;;;;;;8.70;4.10;;;10.60;99.90;;;;;;5051984;28;20116;-75
2022/10/13 00:51:39;;;;;;;15.82;4.00;;;10.60;99.90;;;;;;5050530;28;20251;-76
2022/10/13 00:54:08;;;;;;;9.30;4.18;;;10.50;99.90;;;;;;5050295;28;20036;-75
2022/10/13 00:56:36;;;;;;;7.85;4.15;;;10.50;99.90;;;;;;5049966;28;20100;-75
2022/10/13 00:59:06;;;;;;;9.50;3.88;;;10.40;99.90;;;;;;5043744;28;20036;-75
2022/10/13 01:01:32;;;;;;;11.07;4.47;;;10.40;99.90;;;;;;5050677;28;20528;-74
2022/10/13 01:03:58;;;;;;;9.68;4.20;;;10.40;99.90;;;;;;5064511;28;20028;-76
2022/10/13 01:06:24;;;;;;;9.20;4.13;;;10.40;99.90;;;;;;5069108;28;20112;-76
2022/10/13 01:08:50;;;;;;;8.40;3.85;;;10.40;99.90;;;;;;5057627;28;20444;-76
2022/10/13 01:11:40;;;;;;;10.50;4.43;;;10.40;99.90;;;;;;5050525;28;20119;-75
2022/10/13 01:14:12;;;;;;;9.48;4.45;;;10.40;99.90;;;;;;5035926;28;20109;-77
2022/10/13 01:17:03;;;;;;;10.68;4.28;;;10.40;99.90;;;;;;5051212;28;20028;-76
2022/10/13 01:19:43;;;;;;;12.35;4.90;;;10.40;99.90;;;;;;5069012;28;20028;-75
2022/10/13 01:22:23;;;;;;;13.52;4.32;;;10.30;99.90;;;;;;5049766;28;20060;-75
2022/10/13 01:24:57;;;;;;;11.73;3.50;;;10.20;99.90;;;;;;5031418;28;20021;-75
2022/10/13 01:27:55;;;;;;;8.32;3.70;;;10.20;99.90;;;;;;5047823;28;20025;-75
2022/10/13 01:30:22;;;;;;;10.05;4.30;;;10.20;99.90;;;;;;5050385;28;20029;-75
2022/10/13 01:33:06;;;;;;;10.48;4.18;;;10.10;99.90;;;;;;5049908;28;20423;-76
2022/10/13 01:35:54;;;;;;;10.60;4.60;;;10.10;99.90;;;;;;5055539;28;20081;-76
2022/10/13 01:38:32;;;;;;;8.70;4.20;;;10.00;99.90;;;;;;5066599;28;20103;-75
2022/10/13 01:41:08;;;;;;;9.63;4.38;;;10.00;99.90;;;;;;5067231;28;20025;-75
2022/10/13 01:43:39;;;;;;;11.20;4.38;;;10.00;99.90;;;;;;5054752;28;20033;-77
2022/10/13 01:46:11;;;;;;;14.48;4.30;;;10.00;99.90;;;;;;5051516;28;20040;-75
2022/10/13 01:48:39;;;;;;;8.27;3.63;;;9.90;99.90;;;;;;5050587;28;20043;-76
2022/10/13 01:51:08;;;;;;;9.48;3.88;;;9.90;99.90;;;;;;5048468;28;20028;-77
2022/10/13 01:53:34;;;;;;;15.27;4.53;;;9.90;99.90;;;;;;5050304;28;20025;-76
2022/10/13 01:56:00;;;;;;;12.55;4.63;;;9.90;99.90;;;;;;5059047;28;20028;-75
2022/10/13 01:58:29;;;;;;;12.95;4.72;;;9.80;99.90;;;;;;5055247;28;20488;-75
2022/10/13 02:01:02;;;;;;;10.48;4.72;;;9.80;99.90;;;;;;5052034;28;20036;-76
2022/10/13 02:03:53;;;;;;;11.93;4.22;;;9.80;99.90;;;;;;5049809;28;20032;-76
2022/10/13 02:06:37;;;;;;;9.43;4.03;;;9.80;99.90;;;;;;5019861;28;20045;-76
2022/10/13 02:09:38;;;;;;;12.95;4.13;;;9.80;99.90;;;;;;5053143;28;20054;-76
2022/10/13 02:12:27;;;;;;;12.73;4.05;;;9.80;99.90;;;;;;5050092;28;20048;-75
2022/10/13 02:14:56;;;;;;;9.25;3.75;;;9.80;99.90;;;;;;5048108;28;20020;-75
2022/10/13 02:17:22;;;;;;;8.48;4.45;;;9.70;99.90;;;;;;5056310;28;20021;-75
2022/10/13 02:19:48;;;;;;;10.05;4.95;;;9.70;99.90;;;;;;5049967;28;20035;-75
2022/10/13 02:22:15;;;;;;;11.27;4.10;;;9.70;99.90;;;;;;5050106;28;20108;-75
2022/10/13 02:24:41;;;;;;;10.38;4.95;;;9.70;99.90;;;;;;5055454;28;20025;-75
2022/10/13 02:27:07;;;;;;;9.15;4.25;;;9.70;99.90;;;;;;5059092;28;20516;-75
2022/10/13 02:29:33;;;;;;;9.73;4.70;;;9.70;99.90;;;;;;5049347;28;20036;-76
2022/10/13 02:31:59;;;;;;;8.60;3.83;;;9.70;99.90;;;;;;5053324;28;20020;-76
2022/10/13 02:34:24;;;;;;;13.68;4.32;;;9.70;99.90;;;;;;5048171;28;20107;-78
2022/10/13 02:36:50;;;;;;;9.40;4.00;;;9.80;99.90;;;;;;5055889;28;20085;-77
2022/10/13 02:39:16;;;;;;;8.15;4.22;;;9.80;99.90;;;;;;5050712;28;20049;-75
2022/10/13 02:41:42;;;;;;;10.25;4.15;;;9.80;99.90;;;;;;5054934;28;20391;-76
2022/10/13 02:44:08;;;;;;;11.63;4.20;;;9.80;99.90;;;;;;5061969;28;20103;-75
2022/10/13 02:46:34;;;;;;;9.38;4.32;;;9.80;99.90;;;;;;5061662;28;20040;-75
2022/10/13 02:49:00;;;;;;;9.90;4.60;;;9.80;99.90;;;;;;5061817;28;20025;-75
2022/10/13 02:51:26;;;;;;;12.25;4.50;;;9.90;99.90;;;;;;5044775;28;20032;-75
2022/10/13 02:53:51;;;;;;;10.88;4.47;;;9.80;99.90;;;;;;5052753;28;20021;-76
2022/10/13 02:56:18;;;;;;;9.43;4.20;;;9.90;99.90;;;;;;5051993;28;20028;-76
2022/10/13 02:58:43;;;;;;;9.05;4.40;;;9.90;99.90;;;;;;5056464;28;20025;-75
2022/10/13 03:01:13;;;;;;;10.98;4.53;;;9.90;99.90;;;;;;5061105;28;20579;-75
2022/10/13 03:03:39;;;;;;;11.27;4.53;;;9.90;99.90;;;;;;5061377;28;20025;-76
2022/10/13 03:06:05;;;;;;;13.85;4.45;;;9.90;99.90;;;;;;5058792;28;20116;-76
2022/10/13 03:08:33;;;;;;;10.10;4.32;;;9.90;99.90;;;;;;5048565;28;20403;-75
2022/10/13 03:10:59;;;;;;;9.65;4.22;;;10.00;99.90;;;;;;5032579;28;20049;-75
2022/10/13 03:13:26;;;;;;;12.20;5.18;;;10.00;99.90;;;;;;5042634;28;20488;-75
2022/10/13 03:15:51;;;;;;;13.30;4.72;;;10.00;99.90;;;;;;5056076;28;20044;-75
2022/10/13 03:18:17;;;;;;;13.60;4.90;;;9.90;99.90;;;;;;5061031;28;20420;-75
2022/10/13 03:20:43;;;;;;;12.18;4.60;;;9.90;99.90;;;;;;5059755;28;20056;-75
2022/10/13 03:23:09;;;;;;;10.32;4.65;;;10.00;99.90;;;;;;5049281;28;20032;-75
2022/10/13 03:25:35;;;;;;;10.43;4.50;;;9.90;99.90;;;;;;5048122;28;20024;-75
2022/10/13 03:28:01;;;;;;;10.20;4.70;;;9.90;99.90;;;;;;5059169;28;20515;-75
2022/10/13 03:30:26;;;;;;;9.93;4.78;;;9.90;99.90;;;;;;5049445;28;20017;-75
2022/10/13 03:32:52;;;;;;;10.48;3.97;;;9.90;99.90;;;;;;5048553;28;20488;-76
2022/10/13 03:35:18;;;;;;;9.00;4.10;;;9.90;99.90;;;;;;5049365;28;20056;-75
2022/10/13 03:37:44;;;;;;;8.50;4.57;;;9.80;99.90;;;;;;5044749;28;20396;-75
2022/10/13 03:40:10;;;;;;;7.55;4.10;;;9.80;99.90;;;;;;5057010;28;20612;-76
2022/10/13 03:42:36;;;;;;;11.88;3.90;;;9.80;99.90;;;;;;5052695;28;20448;-75
2022/10/13 03:45:05;;;;;;;10.55;4.85;;;9.90;99.90;;;;;;5053134;28;20032;-76
2022/10/13 03:47:34;;;;;;;9.48;4.72;;;9.90;99.90;;;;;;5051768;28;20029;-75
2022/10/13 03:50:00;;;;;;;9.55;4.13;;;9.90;99.90;;;;;;5051523;28;20029;-75
2022/10/13 03:52:26;;;;;;;10.27;4.68;;;9.90;99.90;;;;;;5051792;28;20485;-75
2022/10/13 03:54:51;;;;;;;11.00;4.75;;;9.80;99.90;;;;;;5051540;28;20503;-75
2022/10/13 03:57:17;;;;;;;14.63;4.80;;;9.90;99.90;;;;;;5053959;28;20395;-76
2022/10/13 03:59:43;;;;;;;11.90;4.78;;;9.90;99.90;;;;;;5053020;28;20102;-77
2022/10/13 04:02:08;;;;;;;12.52;5.45;;;9.90;99.90;;;;;;5055115;28;20124;-76
2022/10/13 04:04:36;;;;;;;8.45;4.47;;;9.90;99.90;;;;;;5051944;28;20104;-75
2022/10/13 04:07:01;;;;;;;11.65;4.60;;;9.90;99.90;;;;;;5034614;28;20029;-75
2022/10/13 04:09:27;;;;;;;14.43;5.43;;;9.90;99.90;;;;;;5051636;28;20447;-75
2022/10/13 04:11:53;;;;;;;9.30;4.28;;;9.90;99.90;;;;;;5049741;28;20025;-75
2022/10/13 04:14:19;;;;;;;10.77;4.80;;;9.90;99.90;;;;;;5051840;28;20025;-75
2022/10/13 04:16:45;;;;;;;13.13;4.97;;;9.90;99.90;;;;;;5053652;28;20037;-74
2022/10/13 04:19:13;;;;;;;9.07;4.50;;;9.90;99.90;;;;;;5034081;28;20446;-75
2022/10/13 04:21:39;;;;;;;10.95;4.72;;;9.90;99.90;;;;;;5051632;28;20029;-75
2022/10/13 04:24:06;;;;;;;10.85;4.88;;;9.90;99.90;;;;;;5047369;28;20025;-75
2022/10/13 04:26:34;;;;;;;14.48;4.95;;;9.90;99.90;;;;;;5054405;28;20112;-76
2022/10/13 04:29:03;;;;;;;10.40;4.72;;;9.90;99.90;;;;;;5057398;28;20028;-76
2022/10/13 04:31:29;;;;;;;8.70;4.28;;;9.80;99.90;;;;;;5053013;28;20489;-75
2022/10/13 04:33:56;;;;;;;10.48;5.38;;;9.80;99.90;;;;;;5051374;28;20056;-75
2022/10/13 04:36:22;;;;;;;12.02;4.65;;;9.80;99.90;;;;;;5055281;28;20082;-75
2022/10/13 04:38:47;;;;;;;8.68;4.30;;;9.80;99.90;;;;;;5056705;28;20394;-75
2022/10/13 04:41:14;;;;;;;9.77;4.68;;;9.70;99.90;;;;;;5055060;28;20097;-76
2022/10/13 04:43:41;;;;;;;8.07;4.53;;;9.80;99.90;;;;;;5051018;28;20067;-76
2022/10/13 04:46:11;;;;;;;10.73;4.82;;;9.70;99.90;;;;;;5050237;28;20064;-75
2022/10/13 04:48:37;;;;;;;12.73;4.80;;;9.70;99.90;;;;;;5050934;28;20017;-75
2022/10/13 04:51:14;;;;;;;11.57;4.80;;;9.80;99.90;;;;;;5052139;28;20021;-75
2022/10/13 04:53:40;;;;;;;12.88;5.38;;;9.70;99.90;;;;;;5049924;28;20021;-75
2022/10/13 04:56:09;;;;;;;12.73;5.45;;;9.70;99.90;;;;;;5052253;28;20029;-75
2022/10/13 04:58:35;;;;;;;10.95;5.15;;;9.70;99.90;;;;;;5056403;28;20123;-74
2022/10/13 05:01:03;;;;;;;11.73;5.75;;;9.70;99.90;;;;;;5037097;28;20028;-75
2022/10/13 05:03:29;;;;;;;13.23;4.80;;;9.70;99.90;;;;;;5051889;28;20393;-75
2022/10/13 05:05:56;;;;;;;9.40;5.75;;;9.70;99.90;;;;;;5051810;28;20052;-75
2022/10/13 05:08:21;;;;;;;14.45;5.95;;;9.60;99.90;;;;;;5050824;28;20028;-74
2022/10/13 05:10:56;;;;;;;12.32;5.30;;;9.60;99.90;;;;;;5035047;28;20115;-75
2022/10/13 05:13:22;;;;;;;10.13;5.53;;;9.60;99.90;;;;;;5054298;28;20021;-75
2022/10/13 05:15:48;;;;;;;10.88;5.75;;;9.60;99.90;;;;;;5053908;28;20027;-75
2022/10/13 05:18:14;;;;;;;12.52;6.30;;;9.60;99.90;;;;;;5052012;28;20029;-74
2022/10/13 05:20:40;;;;;;;11.45;5.97;;;9.60;99.90;;;;;;5050516;28;20092;-74
2022/10/13 05:23:05;;;;;;;11.85;6.22;;;9.60;99.90;;;;;;5050434;28;20389;-75
2022/10/13 05:25:33;;;;;;;10.73;5.90;;;9.60;99.90;;;;;;5035306;28;20065;-76
2022/10/13 05:27:59;;;;;;;15.05;6.32;;;9.70;99.90;;;;;;5034506;28;20049;-75
2022/10/13 05:30:25;;;;;;;12.57;6.70;;;9.70;99.90;;;;;;5051107;28;20032;-75
2022/10/13 05:32:50;;;;;;;13.65;6.72;;;9.70;99.90;;;;;;5054157;28;20028;-76
2022/10/13 05:35:16;;;;;;;13.05;6.72;;;9.70;99.90;;;;;;5051843;28;20067;-74
2022/10/13 05:37:42;;;;;;;15.20;6.13;;;9.70;99.90;;;;;;5033567;28;20119;-75
2022/10/13 05:40:08;;;;;;;9.82;5.78;;;9.70;99.90;;;;;;5050071;28;20036;-75
2022/10/13 05:42:34;;;;;;;14.73;6.15;;;9.70;99.90;;;;;;5051606;28;20025;-74
2022/10/13 05:45:00;;;;;;;10.73;5.95;;;9.70;99.90;;;;;;5049089;28;20317;-74
2022/10/13 05:47:27;;;;;;;14.80;5.93;;;9.70;99.90;;;;;;5050414;28;20048;-74
2022/10/13 05:49:55;;;;;;;14.68;6.35;;;9.70;99.90;;;;;;5051494;28;20481;-75
2022/10/13 05:52:24;;;;;;;14.88;6.95;;;9.80;99.90;;;;;;5048564;28;20554;-75
2022/10/13 05:54:54;;;;;;;16.55;6.57;;;9.80;99.90;;;;;;5050598;28;20032;-75
2022/10/13 05:57:30;;;;;;;10.23;6.00;;;9.80;99.90;;;;;;5051654;28;20032;-75
2022/10/13 06:00:06;;;;;;;10.73;6.00;;;9.80;99.90;;;;;;5050389;28;20020;-74
2022/10/13 06:02:45;;;;;;;15.00;7.03;;;9.80;99.90;;;;;;5031879;28;20071;-75
2022/10/13 06:05:16;;;;;;;7.15;3.92;;;9.80;99.90;;;;;;5044644;28;20029;-74
2022/10/13 06:07:43;;;;;;;11.88;6.47;;;11.50;99.90;;;;;;5048615;28;20557;-76
2022/10/13 06:10:10;;;;;;;17.02;6.53;;;11.30;99.90;;;;;;5048036;28;20060;-76
2022/10/13 06:12:36;;;;;;;11.02;6.55;;;10.80;99.90;;;;;;5045967;28;20025;-76
2022/10/13 06:15:03;;;;;;;15.65;6.40;;;10.60;99.90;;;;;;5049328;28;20040;-77
2022/10/13 06:17:29;;;;;;;13.35;7.35;;;10.40;99.90;;;;;;5032780;28;20070;-76
2022/10/13 06:19:54;;;;;;;11.00;6.70;;;10.30;99.90;;;;;;5049373;28;20108;-74
2022/10/13 06:22:20;;;;;;;17.70;7.38;;;10.20;99.90;;;;;;5050376;28;20017;-76
2022/10/13 06:24:46;;;;;;;13.80;6.47;;;10.20;99.90;;;;;;5048412;28;20111;-75
2022/10/13 06:27:12;;;;;;;18.92;7.68;;;10.10;99.90;;;;;;5047015;28;20166;-77
2022/10/13 06:29:38;;;;;;;15.02;7.50;;;10.10;99.90;;;;;;5048802;28;20118;-76
2022/10/13 06:32:04;;;;;;;12.73;6.90;;;10.10;99.90;;;;;;5061448;28;20510;-76
2022/10/13 06:34:30;;;;;;;14.75;7.55;;;10.00;99.90;;;;;;5069286;28;20051;-76
2022/10/13 06:36:57;;;;;;;14.30;7.28;;;10.10;99.90;;;;;;5067629;28;20100;-76
2022/10/13 06:39:22;;;;;;;16.75;7.00;;;10.10;99.90;;;;;;5062000;28;20024;-76
2022/10/13 06:41:49;;;;;;;15.40;7.28;;;10.10;99.90;;;;;;5047668;28;20392;-76
2022/10/13 06:44:15;;;;;;;16.17;7.93;;;10.10;99.90;;;;;;5056135;28;20400;-76
2022/10/13 06:46:40;;;;;;;16.90;8.15;;;10.10;99.90;;;;;;5050926;28;20036;-76
2022/10/13 06:49:09;;;;;;;11.63;6.60;;;10.00;99.90;;;;;;5050043;28;20028;-76
2022/10/13 06:51:35;;;;;;;16.75;7.07;;;10.00;99.90;;;;;;5068350;28;20028;-76
2022/10/13 06:54:00;;;;;;;13.68;7.75;;;10.00;99.90;;;;;;5068879;28;20090;-76
2022/10/13 06:56:28;;;;;;;12.52;7.05;;;10.00;99.90;;;;;;5043999;28;20376;-75
2022/10/13 06:58:53;;;;;;;14.80;7.38;;;10.10;99.90;;;;;;5045792;28;20025;-76
2022/10/13 07:01:19;;;;;;;16.10;6.68;;;10.10;99.90;;;;;;5052497;28;20099;-75
2022/10/13 07:03:50;;;;;;;11.77;7.07;;;10.10;99.90;;;;;;5071560;28;20046;-75
2022/10/13 07:06:16;;;;;;;;;;;10.20;99.90;;;;;;5062825;28;20036;-76
2022/10/13 07:08:42;;;;;;;10.27;6.50;;;10.20;99.90;;;;;;5050581;28;19958;-75
2022/10/13 07:11:13;;;;;;;12.77;6.75;;;10.30;99.90;;;;;;5051734;28;20064;-76
2022/10/13 07:13:41;;;;;;;14.05;6.75;;;10.30;99.90;;;;;;5049733;28;20051;-76
2022/10/13 07:16:08;;;;;;;15.70;7.57;;;10.30;99.90;;;;;;5059321;28;20016;-76
2022/10/13 07:18:34;;;;;;;15.07;7.35;;;10.40;99.90;;;;;;5058469;28;20032;-77
2022/10/13 07:21:00;;;;;;;15.77;7.30;;;10.40;99.90;;;;;;5068820;28;20396;-75
2022/10/13 07:23:27;;;;;;;13.45;6.95;;;10.40;99.90;;;;;;5051411;28;20491;-75
2022/10/13 07:25:55;;;;;;;13.88;7.57;;;10.50;99.90;;;;;;5058619;28;20048;-76
2022/10/13 07:28:24;;;;;;;15.23;7.72;;;10.50;99.90;;;;;;5062989;28;20285;-76
2022/10/13 07:30:50;;;;;;;14.77;7.25;;;10.60;99.90;;;;;;5059906;28;20017;-76
2022/10/13 07:33:16;;;;;;;15.15;7.75;;;10.60;99.90;;;;;;5058809;28;20032;-75
2022/10/13 07:35:41;;;;;;;15.32;8.05;;;10.60;99.90;;;;;;5052607;28;20017;-75
2022/10/13 07:38:07;;;;;;;14.60;7.43;;;10.60;99.90;;;;;;5053303;28;20533;-76
2022/10/13 07:40:34;;;;;;;16.40;7.90;;;10.70;99.90;;;;;;5058946;28;20040;-75
2022/10/13 07:43:00;;;;;;;16.08;8.27;;;10.70;99.90;;;;;;5065518;28;20484;-76
2022/10/13 07:45:26;;;;;;;15.85;7.65;;;10.80;99.90;;;;;;5055171;28;20032;-76
2022/10/13 07:47:52;;;;;;;18.10;7.78;;;10.70;99.90;;;;;;5053961;28;20056;-76
2022/10/13 07:50:17;;;;;;;13.45;7.35;;;10.80;99.90;;;;;;5058590;28;20056;-76
2022/10/13 07:52:43;;;;;;;19.05;7.85;;;10.90;99.90;;;;;;5033695;28;20029;-76
2022/10/13 07:55:09;;;;;;;16.77;8.15;;;10.80;99.90;;;;;;5039903;28;20487;-76
2022/10/13 07:57:35;;;;;;;15.27;7.90;;;10.90;99.90;;;;;;5067670;28;20040;-76
2022/10/13 08:00:01;;;;;;;22.20;9.30;;;10.90;99.90;;;;;;5067167;28;20078;-75
2022/10/13 08:02:26;;;;;;;20.83;9.18;;;10.80;99.90;;;;;;5067428;28;20357;-78
2022/10/13 08:04:52;;;;;;;15.60;8.57;;;10.90;99.90;;;;;;5050746;28;20025;-76
2022/10/13 08:07:18;;;;;;;15.07;8.43;;;10.80;99.90;;;;;;5052306;28;20021;-76
2022/10/13 08:09:43;;;;;;;16.63;7.40;;;10.90;99.90;;;;;;5038201;28;20573;-77
2022/10/13 08:12:10;;;;;;;13.52;7.82;;;10.90;99.90;;;;;;5066153;28;20043;-76
2022/10/13 08:14:36;;;;;;;14.38;8.73;;;10.90;99.90;;;;;;5056287;28;20024;-76
2022/10/13 08:17:02;;;;;;;19.10;10.23;;;10.90;99.90;;;;;;5033934;28;20527;-76
2022/10/13 08:19:27;;;;;;;22.48;10.55;;;11.00;99.90;;;;;;5053139;28;20029;-77
2022/10/13 08:21:54;;;;;;;17.00;8.23;;;11.00;99.90;;;;;;5048879;28;20112;-76
2022/10/13 08:24:23;;;;;;;15.85;8.55;;;11.10;99.90;;;;;;5056530;28;20025;-77
2022/10/13 08:26:49;;;;;;;20.92;9.65;;;11.20;99.90;;;;;;5054529;28;20035;-77
2022/10/13 08:29:16;;;;;;;17.85;9.55;;;11.20;99.90;;;;;;5052702;28;20029;-77
2022/10/13 08:31:42;;;;;;;17.85;7.93;;;11.20;99.90;;;;;;5052853;28;20374;-76
2022/10/13 08:34:09;;;;;;;16.13;9.23;;;11.70;99.90;;;;;;5052827;28;20032;-76
2022/10/13 08:36:36;;;;;;;17.70;9.95;;;11.60;99.90;;;;;;5050139;28;20820;-77
2022/10/13 08:39:02;;;;;;;14.18;8.90;;;11.50;99.90;;;;;;5055985;28;20044;-76
2022/10/13 08:41:31;;;;;;;20.15;10.20;;;11.50;99.90;;;;;;5052657;28;20091;-77
2022/10/13 08:44:04;;;;;;;16.52;8.85;;;11.50;99.90;;;;;;5052424;28;20029;-77
2022/10/13 08:47:04;;;;;;;18.40;10.18;;;11.50;99.90;;;;;;5052459;28;20099;-76
2022/10/13 08:49:30;;;;;;;17.00;10.20;;;11.50;99.90;;;;;;5051852;28;20025;-76
2022/10/13 08:51:57;;;;;;;19.05;10.30;;;11.50;99.90;;;;;;5060819;28;20024;-76
2022/10/13 08:54:24;;;;;;;18.98;10.18;;;11.60;99.90;;;;;;5050934;28;20021;-76
2022/10/13 08:56:51;;;;;;;18.83;10.48;;;11.60;99.90;;;;;;5051767;28;20382;-77
2022/10/13 08:59:18;;;;;;;22.30;11.75;;;11.70;99.90;;;;;;5050675;28;20476;-76
2022/10/13 09:01:50;;;;;;;20.58;11.15;;;11.70;99.90;;;;;;5050050;28;20028;-75
2022/10/13 09:04:35;;;;;;;19.75;10.98;;;11.80;99.90;;;;;;5050640;28;20033;-77
2022/10/13 09:07:31;;;;;;;20.45;10.98;;;11.90;99.90;;;;;;5051575;28;20384;-75
2022/10/13 09:09:57;;;;;;;19.67;11.05;;;11.90;99.90;;;;;;5049983;28;20029;-77
2022/10/13 09:12:24;;;;;;;21.10;11.27;;;11.90;99.90;;;;;;5032837;28;20025;-76
2022/10/13 09:15:06;;;;;;;23.80;11.85;;;11.90;99.90;;;;;;5050385;28;20047;-76
2022/10/13 09:17:33;;;;;;;22.05;11.82;;;12.00;99.90;;;;;;5055761;28;20057;-75
2022/10/13 09:20:19;;;;;;;18.98;11.27;;;12.00;99.90;;;;;;5052735;28;20488;-74
2022/10/13 09:23:19;;;;;;;26.83;11.35;;;12.10;99.90;;;;;;5052864;28;20457;-77
2022/10/13 09:25:50;;;;;;;26.38;12.10;;;12.20;99.90;;;;;;5056995;28;20103;-76
2022/10/13 09:28:15;;;;;;;19.00;11.27;;;12.30;99.90;;;;;;5054184;28;20032;-75
2022/10/13 09:30:47;;;;;;;19.17;11.30;;;12.30;99.90;;;;;;5051526;28;20442;-74
2022/10/13 09:33:17;;;;;;;20.90;11.50;;;12.40;99.90;;;;;;5049133;28;20104;-75
2022/10/13 09:36:05;;;;;;;24.08;11.43;;;12.50;99.90;;;;;;5055818;28;20032;-75
2022/10/13 09:38:31;;;;;;;22.55;12.10;;;12.60;99.90;;;;;;5057624;28;20062;-75
2022/10/13 09:41:20;;;;;;;26.23;12.77;;;12.70;99.90;;;;;;5057847;28;20028;-77
2022/10/13 09:43:46;;;;;;;30.35;13.10;;;12.90;99.90;;;;;;5028587;23;20456;-77
2022/10/13 09:46:18;;;;;;;18.60;11.52;;;13.20;99.90;;;;;;5010991;28;20018;-77
2022/10/13 09:48:49;;;;;;;24.85;13.68;;;13.50;99.90;;;;;;5024469;28;20050;-77
2022/10/13 09:51:33;;;;;;;24.30;11.50;;;13.70;99.90;;;;;;5011074;28;20030;-78
2022/10/13 09:53:59;;;;;;;22.65;11.45;;;13.80;99.90;;;;;;4994193;28;20053;-77
2022/10/13 09:56:42;;;;;;;19.08;10.77;;;13.70;99.90;;;;;;5030882;28;20296;-77
2022/10/13 09:59:32;;;;;;;22.75;12.23;;;13.70;99.90;;;;;;5013422;28;20506;-77
2022/10/13 10:02:10;;;;;;;21.30;11.48;;;13.70;99.90;;;;;;5030089;28;20017;-77
2022/10/13 10:04:41;;;;;;;21.23;11.00;;;13.70;99.90;;;;;;5033128;28;20034;-76
2022/10/13 10:07:20;;;;;;;22.80;11.65;;;13.70;99.90;;;;;;5016489;28;20037;-76
2022/10/13 10:09:53;;;;;;;27.55;14.75;;;13.60;99.90;;;;;;5029552;28;20283;-76
2022/10/13 10:12:27;;;;;;;20.95;10.98;;;13.50;99.90;;;;;;5048493;28;20064;-77
2022/10/13 10:14:52;;;;;;;16.60;10.88;;;13.40;99.90;;;;;;5039496;28;20036;-77
2022/10/13 10:17:29;;;;;;;18.00;10.98;;;13.30;99.90;;;;;;5039565;28;20037;-76
2022/10/13 10:20:26;;;;;;;23.30;13.27;;;13.30;99.90;;;;;;5036247;28;20354;-76
2022/10/13 10:23:11;;;;;;;16.73;10.68;;;13.30;99.90;;;;;;5049894;28;20489;-76
2022/10/13 10:25:49;;;;;;;18.13;10.93;;;13.30;99.90;;;;;;5051673;28;20037;-77
2022/10/13 10:28:36;;;;;;;16.75;11.48;;;13.30;99.90;;;;;;5034435;28;20325;-77
2022/10/13 10:31:21;;;;;;;26.13;14.10;;;13.30;99.90;;;;;;5021053;28;20104;-78
2022/10/13 10:34:12;;;;;;;21.45;12.60;;;13.40;99.90;;;;;;5050139;28;20089;-76
2022/10/13 10:36:52;;;;;;;18.77;12.35;;;13.40;99.90;;;;;;5037600;28;20067;-76
2022/10/13 10:39:40;;;;;;;17.48;11.02;;;13.40;99.90;;;;;;5049074;28;20037;-76
2022/10/13 10:42:25;;;;;;;22.73;12.13;;;13.40;99.90;;;;;;5018057;28;20036;-76
2022/10/13 10:44:53;;;;;;;25.85;13.25;;;13.50;99.90;;;;;;5034840;28;20037;-77
2022/10/13 10:47:43;;;;;;;20.83;12.23;;;13.50;99.90;;;;;;5037012;28;20362;-77
2022/10/13 10:50:14;;;;;;;16.63;10.73;;;13.50;99.90;;;;;;5033783;28;20034;-76
2022/10/13 10:53:05;;;;;;;20.55;11.48;;;13.50;99.90;;;;;;5036289;28;20555;-76
2022/10/13 10:55:41;;;;;;;22.20;12.20;;;13.60;99.90;;;;;;5018432;28;20045;-77
2022/10/13 10:58:34;;;;;;;17.65;11.55;;;13.70;99.90;;;;;;5035788;28;20081;-76
2022/10/13 11:01:25;;;;;;;16.20;9.85;;;13.80;99.90;;;;;;5036343;28;20481;-76
2022/10/13 11:03:51;;;;;;;20.95;12.82;;;13.90;99.90;;;;;;5017566;28;20050;-76
2022/10/13 11:06:17;;;;;;;19.23;11.00;;;13.90;99.90;;;;;;5033522;28;20053;-77
2022/10/13 11:08:46;;;;;;;19.60;11.77;;;14.00;99.90;;;;;;5038042;28;20041;-77
2022/10/13 11:11:32;;;;;;;17.60;11.65;;;14.20;99.90;;;;;;5033184;28;20378;-76
2022/10/13 11:14:04;;;;;;;26.73;11.80;;;14.20;99.90;;;;;;5031262;28;20085;-76
2022/10/13 11:16:57;;;;;;;16.70;10.63;;;14.20;99.90;;;;;;5031214;28;20022;-77
2022/10/13 11:19:41;;;;;;;19.58;11.95;;;14.30;99.90;;;;;;5029622;28;20334;-76
2022/10/13 11:22:06;;;;;;;23.38;11.50;;;14.40;99.90;;;;;;5017045;28;20037;-76
2022/10/13 11:24:37;;;;;;;23.88;13.20;;;14.40;99.90;;;;;;5033967;28;20567;-77
2022/10/13 11:27:15;;;;;;;18.27;10.60;;;14.30;99.90;;;;;;5034512;28;20529;-77
2022/10/13 11:29:52;;;;;;;19.48;11.35;;;14.40;99.90;;;;;;5034780;28;20025;-77
2022/10/13 11:32:24;;;;;;;22.25;11.80;;;14.40;99.90;;;;;;5035757;28;20481;-77
2022/10/13 11:34:59;;;;;;;18.10;10.73;;;14.40;99.90;;;;;;5035663;28;20026;-77
2022/10/13 11:37:37;;;;;;;20.73;11.88;;;14.50;99.90;;;;;;5033801;28;20048;-77
2022/10/13 11:40:31;;;;;;;22.85;12.05;;;14.50;99.90;;;;;;5033368;28;20378;-78
2022/10/13 11:43:02;;;;;;;19.83;11.43;;;14.60;99.90;;;;;;5035682;28;20025;-77
2022/10/13 11:45:49;;;;;;;22.35;12.73;;;14.70;99.90;;;;;;5034943;28;20026;-78
2022/10/13 11:48:39;;;;;;;17.77;10.75;;;14.90;99.90;;;;;;5048560;28;20026;-76
2022/10/13 11:51:28;;;;;;;15.88;9.73;;;15.10;99.90;;;;;;5050926;28;20037;-77
2022/10/13 11:54:20;;;;;;;23.55;11.20;;;15.30;99.90;;;;;;5041853;28;20097;-77
2022/10/13 11:56:52;;;;;;;24.20;12.70;;;15.40;99.90;;;;;;5043894;28;20044;-76
2022/10/13 11:59:36;;;;;;;20.13;11.43;;;15.50;99.90;;;;;;5049741;28;20144;-77
2022/10/13 12:02:15;;;;;;;16.30;9.95;;;15.50;99.90;;;;;;5042225;28;20091;-77
2022/10/13 12:04:44;;;;;;;19.35;9.07;;;15.50;99.90;;;;;;5046865;28;20048;-78
2022/10/13 12:07:13;;;;;;;19.13;10.18;;;15.30;99.90;;;;;;5051314;28;20032;-77
2022/10/13 12:09:51;;;;;;;19.48;9.63;;;15.30;99.90;;;;;;5053540;28;20089;-77
2022/10/13 12:12:19;;;;;;;18.40;9.90;;;15.30;99.90;;;;;;5043899;28;20037;-77
2022/10/13 12:14:49;;;;;;;18.40;10.27;;;15.30;99.90;;;;;;5019665;28;20026;-75
2022/10/13 12:17:29;;;;;;;17.88;10.43;;;15.30;99.90;;;;;;5035025;28;20444;-77
2022/10/13 12:19:59;;;;;;;22.60;9.82;;;15.30;99.90;;;;;;5017193;28;20043;-77
2022/10/13 12:22:26;;;;;;;17.20;10.82;;;15.20;99.90;;;;;;5034491;28;20040;-76
2022/10/13 12:25:02;;;;;;;16.40;10.57;;;15.20;99.90;;;;;;5015610;28;20029;-76
2022/10/13 12:27:32;;;;;;;15.68;9.05;;;15.10;99.90;;;;;;5017064;28;20033;-77
2022/10/13 12:30:00;;;;;;;15.47;8.93;;;15.20;99.90;;;;;;5026162;28;20037;-77
2022/10/13 12:32:33;;;;;;;14.05;8.00;;;15.40;99.90;;;;;;5039687;28;20302;-77
2022/10/13 12:35:17;;;;;;;18.30;9.13;;;15.50;99.90;;;;;;5035555;28;20036;-77
2022/10/13 12:37:44;;;;;;;15.90;9.85;;;15.60;99.90;;;;;;5035263;28;20029;-77
2022/10/13 12:40:14;;;;;;;18.40;10.02;;;15.70;99.90;;;;;;5033968;28;20045;-77
2022/10/13 12:42:42;;;;;;;21.17;11.38;;;15.70;99.90;;;;;;5034339;28;20021;-76
2022/10/13 12:45:18;;;;;;;18.75;10.90;;;15.60;99.90;;;;;;5015492;28;20444;-77
2022/10/13 12:47:43;;;;;;;17.50;10.00;;;15.70;99.90;;;;;;5033195;28;20018;-76
2022/10/13 12:50:26;;;;;;;20.95;12.75;;;15.70;99.90;;;;;;5033870;28;20021;-77
2022/10/13 12:52:54;;;;;;;29.92;13.32;;;15.70;99.90;;;;;;5033203;28;20453;-77
2022/10/13 12:55:21;;;;;;;18.13;11.15;;;15.70;99.90;;;;;;5036290;28;20067;-77